^^
Station Historical Data
Daily Summary for February 4, 2018 Units:  Metric    English   Both
« Previous Day
Next Day »
Daily Weekly Monthly Yearly Custom
  High: Low: Average:
Temperature: -17.8 °C -25.2 °C -23.7 °C
Dew Point: -17.8 °C -25.9 °C -24.3 °C
Humidity: Humidity% 90% 91%
Wind Speed: 0km/h 0km/h 5.6km/h
Wind Gust: 0km/h - -
Wind- - NW
Pressure: 0 hPa 34428.8 hPa -
Precipitation: 0 mm    
Historical Graphs
 
 
Tabular Data for February 4, 2018
Time Temperature Dew Point Pressure Wind Wind Speed Wind Gust Humidity Rainfall Rate (Hourly) solar Conditions
-17.8 °C -17.8 °C 0 hPa Calm     Humidity% 0 mm SoftwareType W/m2 Conditions
00:03 -23.4 °C -24 °C 34428.8 hPa NE 3.1 km/h 6 km/h 92% 0 mm WeatherDisplay:10.37 W/m2 FEW
00:08 -23.4 °C -24 °C 34428.8 hPa Calm   2.6 km/h 92% 0 mm WeatherDisplay:10.37 W/m2 FEW
00:13 -23.4 °C -24 °C 34428.8 hPa Calm     92% 0 mm WeatherDisplay:10.37 W/m2 FEW
00:18 -23.4 °C -24.1 °C 34428.8 hPa Calm     92% 0 mm WeatherDisplay:10.37 W/m2 FEW
00:23 -23.5 °C -24.1 °C 34428.8 hPa Calm     92% 0 mm WeatherDisplay:10.37 W/m2 FEW
00:28 -23.5 °C -24.1 °C 34442.4 hPa NE 0.5 km/h 6 km/h 92% 0 mm WeatherDisplay:10.37 W/m2 FEW
00:33 -23.5 °C -24.1 °C 34442.4 hPa NE 2.9 km/h 9 km/h 92% 0 mm WeatherDisplay:10.37 W/m2 FEW
00:38 -23.6 °C -24.3 °C 34452.6 hPa Calm     91% 0 mm WeatherDisplay:10.37 W/m2 FEW
00:43 -23.7 °C -24.3 °C 34452.6 hPa NNE 4.3 km/h 15 km/h 91% 0 mm WeatherDisplay:10.37 W/m2 FEW
00:48 -23.7 °C -24.4 °C 34452.6 hPa Calm     91% 0 mm WeatherDisplay:10.37 W/m2 FEW
00:53 -23.8 °C -24.3 °C 34452.6 hPa NNE 3.1 km/h 11.9 km/h 92% 0 mm WeatherDisplay:10.37 W/m2 FEW
00:58 -23.8 °C -24.4 °C 34452.6 hPa North 1.6 km/h 6 km/h 91% 0 mm WeatherDisplay:10.37 W/m2 FEW
01:03 -23.8 °C -24.5 °C 34452.6 hPa North 0.8 km/h 6 km/h 91% 0 mm WeatherDisplay:10.37 W/m2 FEW
01:08 -23.8 °C -24.5 °C 34452.6 hPa North 1.3 km/h 6 km/h 91% 0 mm WeatherDisplay:10.37 W/m2 FEW
01:13 -23.9 °C -24.6 °C 34462.7 hPa Calm     91% 0 mm WeatherDisplay:10.37 W/m2 FEW
01:18 -23.9 °C -24.5 °C 34462.7 hPa Calm   3.1 km/h 92% 0 mm WeatherDisplay:10.37 W/m2 FEW
01:23 -23.9 °C -24.5 °C 34462.7 hPa NNW 0.8 km/h 9 km/h 92% 0 mm WeatherDisplay:10.37 W/m2 FEW
01:28 -23.8 °C -24.4 °C 34462.7 hPa NNW 2.6 km/h 9 km/h 92% 0 mm WeatherDisplay:10.37 W/m2 FEW
01:33 -23.8 °C -24.4 °C 34462.7 hPa North 4.7 km/h 11.9 km/h 92% 0 mm WeatherDisplay:10.37 W/m2 FEW
01:38 -23.8 °C -24.4 °C 34476.3 hPa North 3.9 km/h 9 km/h 92% 0 mm WeatherDisplay:10.37 W/m2 FEW
01:43 -23.8 °C -24.4 °C 34462.7 hPa Calm     92% 0 mm WeatherDisplay:10.37 W/m2 FEW
01:48 -23.8 °C -24.4 °C 34476.3 hPa Calm     92% 0 mm WeatherDisplay:10.37 W/m2 FEW
01:53 -23.8 °C -24.4 °C 34462.7 hPa Calm     92% 0 mm WeatherDisplay:10.37 W/m2 FEW
01:58 -23.8 °C -24.4 °C 34476.3 hPa Calm     92% 0 mm WeatherDisplay:10.37 W/m2 FEW
02:03 -23.8 °C -24.3 °C 34476.3 hPa NNE 3.1 km/h 9 km/h 92% 0 mm WeatherDisplay:10.37 W/m2 FEW
02:08 -23.8 °C -24.3 °C 34476.3 hPa NNE 4.7 km/h 9 km/h 92% 0 mm WeatherDisplay:10.37 W/m2 FEW
02:13 -23.8 °C -24.3 °C 34476.3 hPa NNE 0.3 km/h 3.1 km/h 92% 0 mm WeatherDisplay:10.37 W/m2 FEW
02:18 -23.8 °C -24.3 °C 34476.3 hPa North 6 km/h 20.9 km/h 92% 0 mm WeatherDisplay:10.37 W/m2 FEW
02:23 -23.7 °C -24.3 °C 34476.3 hPa North 1.3 km/h 6 km/h 92% 0 mm WeatherDisplay:10.37 W/m2 FEW
02:28 -23.7 °C -24.3 °C 34486.4 hPa North 1 km/h 3.1 km/h 92% 0 mm WeatherDisplay:10.37 W/m2 FEW
02:33 -23.7 °C -24.3 °C 34486.4 hPa North 2.6 km/h 9 km/h 92% 0 mm WeatherDisplay:10.37 W/m2 FEW
02:38 -23.7 °C -24.2 °C 34486.4 hPa North 5.1 km/h 9 km/h 92% 0 mm WeatherDisplay:10.37 W/m2 FEW
02:43 -23.6 °C -24.2 °C 34486.4 hPa NNW 4.2 km/h 9 km/h 92% 0 mm WeatherDisplay:10.37 W/m2 FEW
02:48 -23.5 °C -24.1 °C 34486.4 hPa Calm     92% 0 mm WeatherDisplay:10.37 W/m2 FEW
02:53 -23.5 °C -24.1 °C 34486.4 hPa NNW 5.5 km/h 9 km/h 92% 0 mm WeatherDisplay:10.37 W/m2 FEW
02:58 -23.5 °C -24.1 °C 34486.4 hPa NNE 7.6 km/h 15 km/h 92% 0 mm WeatherDisplay:10.37 W/m2 FEW
03:03 -23.4 °C -24 °C 34486.4 hPa NNE 1.6 km/h 9 km/h 92% 0 mm WeatherDisplay:10.37 W/m2 FEW
03:08 -23.4 °C -24 °C 34486.4 hPa NNE 3.4 km/h 9 km/h 92% 0 mm WeatherDisplay:10.37 W/m2 FEW
03:13 -23.4 °C -24 °C 34486.4 hPa North 5.5 km/h 9 km/h 92% 0 mm WeatherDisplay:10.37 W/m2 FEW
03:18 -23.4 °C -24.1 °C 34486.4 hPa NNW 2.9 km/h 6 km/h 92% 0 mm WeatherDisplay:10.37 W/m2 FEW
03:23 -23.5 °C -24.1 °C 34486.4 hPa North 10.3 km/h 23.8 km/h 92% 0 mm WeatherDisplay:10.37 W/m2 FEW
03:28 -23.5 °C -24.1 °C 34486.4 hPa North 6 km/h 9 km/h 92% 0 mm WeatherDisplay:10.37 W/m2 FEW
03:33 -23.6 °C -24.1 °C 34486.4 hPa Calm     92% 0 mm WeatherDisplay:10.37 W/m2 FEW
03:38 -23.7 °C -24.3 °C 34496.6 hPa Calm     91% 0 mm WeatherDisplay:10.37 W/m2 FEW
03:43 -23.7 °C -24.3 °C 34496.6 hPa North 2.9 km/h 6 km/h 91% 0 mm WeatherDisplay:10.37 W/m2 FEW
03:48 -23.7 °C -24.4 °C 34496.6 hPa ENE 1.3 km/h 9 km/h 91% 0 mm WeatherDisplay:10.37 W/m2 FEW
03:53 -23.8 °C -24.4 °C 34496.6 hPa NE 1.3 km/h 6 km/h 91% 0 mm WeatherDisplay:10.37 W/m2 FEW
03:58 -23.8 °C -24.5 °C 34496.6 hPa Calm     91% 0 mm WeatherDisplay:10.37 W/m2 FEW
04:03 -23.8 °C -24.5 °C 34510.1 hPa Calm     91% 0 mm WeatherDisplay:10.37 W/m2 FEW
04:08 -23.9 °C -24.6 °C 34510.1 hPa North 6.4 km/h 11.9 km/h 91% 0 mm WeatherDisplay:10.37 W/m2 FEW
04:13 -24 °C -24.6 °C 34510.1 hPa North 0.8 km/h 6 km/h 91% 0 mm WeatherDisplay:10.37 W/m2 FEW
04:18 -24 °C -24.7 °C 34510.1 hPa Calm     91% 0 mm WeatherDisplay:10.37 W/m2 FEW
04:23 -24.1 °C -24.7 °C 34510.1 hPa Calm     91% 0 mm WeatherDisplay:10.37 W/m2 FEW
04:28 -24.1 °C -24.8 °C 34520.3 hPa North 3.4 km/h 9 km/h 91% 0 mm WeatherDisplay:10.37 W/m2 FEW
04:33 -24.1 °C -24.8 °C 34520.3 hPa NNW 2.1 km/h 12.9 km/h 91% 0 mm WeatherDisplay:10.37 W/m2 FEW
04:38 -24.2 °C -24.8 °C 34520.3 hPa NNW 6 km/h 11.9 km/h 91% 0 mm WeatherDisplay:10.37 W/m2 FEW
04:43 -24.2 °C -24.9 °C 34520.3 hPa Calm   3.1 km/h 91% 0 mm WeatherDisplay:10.37 W/m2 FEW
04:48 -24.3 °C -24.9 °C 34533.8 hPa NNW 6.3 km/h 9 km/h 91% 0 mm WeatherDisplay:10.37 W/m2 FEW
04:53 -24.3 °C -24.9 °C 34533.8 hPa NNW 1.3 km/h 6 km/h 91% 0 mm WeatherDisplay:10.37 W/m2 FEW
04:58 -24.3 °C -24.9 °C 34533.8 hPa Calm     91% 0 mm WeatherDisplay:10.37 W/m2 FEW
05:03 -24.4 °C -25.1 °C 34544 hPa North 3.4 km/h 9 km/h 91% 0 mm WeatherDisplay:10.37 W/m2 FEW
05:08 -24.4 °C -25.1 °C 34544 hPa Calm     91% 0 mm WeatherDisplay:10.37 W/m2 FEW
05:13 -24.5 °C -25.1 °C 34544 hPa Calm   3.1 km/h 91% 0 mm WeatherDisplay:10.37 W/m2 FEW
05:18 -24.6 °C -25.2 °C 34533.8 hPa Calm   3.1 km/h 91% 0 mm WeatherDisplay:10.37 W/m2 FEW
05:23 -24.6 °C -25.2 °C 34533.8 hPa NW 2.1 km/h 9 km/h 91% 0 mm WeatherDisplay:10.37 W/m2 FEW
05:28 -24.6 °C -25.2 °C 34544 hPa Calm     91% 0 mm WeatherDisplay:10.37 W/m2 FEW
05:33 -24.6 °C -25.3 °C 34544 hPa Calm     91% 0 mm WeatherDisplay:10.37 W/m2 FEW
05:38 -24.6 °C -25.3 °C 34544 hPa NW 1.6 km/h 9 km/h 91% 0 mm WeatherDisplay:10.37 W/m2 FEW
05:43 -24.7 °C -25.3 °C 34544 hPa Calm     91% 0 mm WeatherDisplay:10.37 W/m2 FEW
05:48 -24.7 °C -25.4 °C 34544 hPa Calm     91% 0 mm WeatherDisplay:10.37 W/m2 FEW
05:53 -24.8 °C -25.4 °C 34544 hPa Calm     91% 0 mm WeatherDisplay:10.37 W/m2 FEW
05:58 -24.8 °C -25.4 °C 34544 hPa Calm     91% 0 mm WeatherDisplay:10.37 W/m2 FEW
06:03 -24.8 °C -25.4 °C 34544 hPa NNW 0.3 km/h 3.1 km/h 91% 0 mm WeatherDisplay:10.37 W/m2 FEW
06:08 -24.8 °C -25.5 °C 34554.1 hPa Calm     91% 0 mm WeatherDisplay:10.37 W/m2 FEW
06:13 -24.9 °C -25.5 °C 34554.1 hPa NNW 1 km/h 6 km/h 91% 0 mm WeatherDisplay:10.37 W/m2 FEW
06:18 -24.9 °C -25.6 °C 34554.1 hPa NNW 6.4 km/h 15 km/h 91% 0 mm WeatherDisplay:10.37 W/m2 FEW
06:23 -24.9 °C -25.6 °C 34554.1 hPa NNW 3.4 km/h 9 km/h 91% 0 mm WeatherDisplay:10.37 W/m2 FEW
06:28 -24.9 °C -25.6 °C 34567.7 hPa NNW 1.8 km/h 9 km/h 91% 0 mm WeatherDisplay:10.37 W/m2 FEW
06:33 -24.9 °C -25.6 °C 34567.7 hPa NNW 1.8 km/h 7.7 km/h 91% 0 mm WeatherDisplay:10.37 W/m2 FEW
06:38 -24.9 °C -25.6 °C 34567.7 hPa NNW 0.8 km/h 6 km/h 91% 0 mm WeatherDisplay:10.37 W/m2 FEW
06:43 -24.9 °C -25.6 °C 34567.7 hPa Calm     91% 0 mm WeatherDisplay:10.37 W/m2 FEW
06:48 -24.9 °C -25.6 °C 34577.8 hPa Calm   3.1 km/h 91% 0 mm WeatherDisplay:10.37 W/m2 FEW
06:53 -25 °C -25.7 °C 34567.7 hPa Calm     91% 0 mm WeatherDisplay:10.37 W/m2 FEW
06:58 -25.1 °C -25.7 °C 34577.8 hPa Calm     90% 0 mm WeatherDisplay:10.37 W/m2 FEW
07:03 -25.1 °C -25.7 °C 34577.8 hPa Calm     91% 0 mm WeatherDisplay:10.37 W/m2 FEW
07:08 -25.1 °C -25.7 °C 34577.8 hPa North 3.7 km/h 9 km/h 91% 0 mm WeatherDisplay:10.37 W/m2 FEW
07:13 -25.1 °C -25.7 °C 34577.8 hPa Calm     91% 0 mm WeatherDisplay:10.37 W/m2 FEW
07:18 -25.1 °C -25.8 °C 34577.8 hPa Calm     91% 0 mm WeatherDisplay:10.37 W/m2 FEW
07:23 -25.1 °C -25.8 °C 34577.8 hPa NNW 3.9 km/h 9 km/h 90% 0 mm WeatherDisplay:10.37 W/m2 FEW
07:28 -25.2 °C -25.9 °C 34577.8 hPa Calm     90% 0 mm WeatherDisplay:10.37 W/m2 FEW
07:33 -25.2 °C -25.9 °C 34577.8 hPa Calm     90% 0 mm WeatherDisplay:10.37 W/m2 FEW
07:38 -25.2 °C -25.9 °C 34591.4 hPa Calm     90% 0 mm WeatherDisplay:10.37 W/m2 FEW
07:43 -25.2 °C -25.9 °C 34591.4 hPa NNW 4.2 km/h 11.9 km/h 90% 0 mm WeatherDisplay:10.37 W/m2 FEW
07:48 -25.2 °C -25.8 °C 34591.4 hPa Calm   3.1 km/h 91% 0 mm WeatherDisplay:10.37 W/m2 FEW
07:53 -25.2 °C -25.8 °C 34591.4 hPa Calm     91% 0 mm WeatherDisplay:10.37 W/m2 FEW
07:58 -25.2 °C -25.8 °C 34591.4 hPa Calm     91% 0 mm WeatherDisplay:10.37 W/m2 FEW
08:03 -25.2 °C -25.8 °C 34591.4 hPa NNW 0.3 km/h 3.1 km/h 91% 0 mm WeatherDisplay:10.37 W/m2 FEW
08:08 -25.2 °C -25.8 °C 34591.4 hPa NNW 1.8 km/h 9 km/h 91% 0 mm WeatherDisplay:10.37 W/m2 FEW
08:13 -25.2 °C -25.8 °C 34601.5 hPa NE 2.6 km/h 9 km/h 91% 0 mm WeatherDisplay:10.37 W/m2 FEW
08:18 -25.2 °C -25.8 °C 34601.5 hPa Calm     91% 0 mm WeatherDisplay:10.37 W/m2 FEW
08:23 -25.1 °C -25.8 °C 34601.5 hPa NNW 2.9 km/h 9 km/h 91% 0 mm WeatherDisplay:10.37 W/m2 FEW
08:28 -25.1 °C -25.8 °C 34601.5 hPa Calm   3.1 km/h 91% 0 mm WeatherDisplay:10.37 W/m2 FEW
08:33 -25.2 °C -25.9 °C 34611.7 hPa Calm     90% 0 mm WeatherDisplay:10.37 W/m2 FEW
08:38 -25.1 °C -25.8 °C 34611.7 hPa Calm   2.6 km/h 90% 0 mm WeatherDisplay:10.37 W/m2 FEW
08:43 -25.1 °C -25.8 °C 34611.7 hPa North 3.1 km/h 9 km/h 90% 0 mm WeatherDisplay:10.37 W/m2 FEW
08:48 -25.1 °C -25.8 °C 34611.7 hPa Calm     90% 0 mm WeatherDisplay:10.37 W/m2 FEW
08:53 -25.1 °C -25.8 °C 34611.7 hPa Calm     91% 0 mm WeatherDisplay:10.37 W/m2 FEW
08:58 -25.1 °C -25.8 °C 34625.2 hPa NNW 2.3 km/h 6 km/h 91% 0 mm WeatherDisplay:10.37 W/m2 FEW
09:03 -25.1 °C -25.7 °C 34625.2 hPa NNW 4.2 km/h 15 km/h 91% 0 mm WeatherDisplay:10.37 W/m2 FEW
09:08 -25.1 °C -25.7 °C 34635.4 hPa NNW 4.3 km/h 15 km/h 91% 0 mm WeatherDisplay:10.37 W/m2 FEW
09:13 -25.1 °C -25.7 °C 34635.4 hPa NNW 7.6 km/h 15 km/h 91% 0 mm WeatherDisplay:10.37 W/m2 FEW
09:18 -25.1 °C -25.7 °C 34635.4 hPa NNW 7.6 km/h 11.9 km/h 91% 0 mm WeatherDisplay:10.37 W/m2 FEW
09:23 -24.9 °C -25.6 °C 34645.6 hPa NNW 9.3 km/h 20.9 km/h 91% 0 mm WeatherDisplay:10.37 W/m2 FEW
09:28 -24.9 °C -25.6 °C 34645.6 hPa NNW 1.6 km/h 9 km/h 91% 0 mm WeatherDisplay:10.37 W/m2 FEW
09:33 -24.9 °C -25.5 °C 34645.6 hPa NW 4.7 km/h 9 km/h 91% 0 mm WeatherDisplay:10.37 W/m2 FEW
09:38 -24.8 °C -25.5 °C 34645.6 hPa NW 3.7 km/h 9 km/h 91% 0 mm WeatherDisplay:10.37 W/m2 FEW
09:43 -24.8 °C -25.5 °C 34645.6 hPa NNW 2.6 km/h 6 km/h 91% 0 mm WeatherDisplay:10.37 W/m2 FEW
09:48 -24.8 °C -25.4 °C 34645.6 hPa NW 1.8 km/h 9 km/h 91% 0 mm WeatherDisplay:10.37 W/m2 FEW
09:53 -24.8 °C -25.4 °C 34645.6 hPa Calm     91% 0 mm WeatherDisplay:10.37 W/m2 FEW
09:58 -24.7 °C -25.3 °C 34645.6 hPa NNW 6.9 km/h 11.9 km/h 91% 0 mm WeatherDisplay:10.37 W/m2 FEW
10:03 -24.7 °C -25.3 °C 34645.6 hPa NW 7.6 km/h 18.2 km/h 91% 0 mm WeatherDisplay:10.37 W/m2 FEW
10:08 -24.6 °C -25.2 °C 34659.1 hPa NNW 6.4 km/h 15 km/h 91% 0 mm WeatherDisplay:10.37 W/m2 FEW
10:13 -24.6 °C -25.2 °C 34659.1 hPa NNW 7.6 km/h 11.9 km/h 91% 0 mm WeatherDisplay:10.37 W/m2 FEW
10:18 -24.6 °C -25.2 °C 34659.1 hPa NNW 8 km/h 15 km/h 91% 0 mm WeatherDisplay:10.37 W/m2 FEW
10:23 -24.5 °C -25.1 °C 34669.3 hPa NNW 5.5 km/h 15 km/h 91% 0 mm WeatherDisplay:10.37 W/m2 FEW
10:28 -24.4 °C -25.1 °C 34659.1 hPa NNW 0.3 km/h 9 km/h 91% 0 mm WeatherDisplay:10.37 W/m2 FEW
10:33 -24.3 °C -25 °C 34669.3 hPa North 8 km/h 9 km/h 91% 0 mm WeatherDisplay:10.37 W/m2 FEW
10:38 -24.3 °C -24.9 °C 34669.3 hPa NNW 7.2 km/h 11.9 km/h 91% 0 mm WeatherDisplay:10.37 W/m2 FEW
10:43 -24.2 °C -24.9 °C 34669.3 hPa NNW 4.7 km/h 10.3 km/h 91% 0 mm WeatherDisplay:10.37 W/m2 FEW
10:48 -24.2 °C -24.8 °C 34669.3 hPa NNW 8.5 km/h 12.9 km/h 91% 0 mm WeatherDisplay:10.37 W/m2 FEW
10:53 -24.1 °C -24.8 °C 34669.3 hPa NNW 7.7 km/h 15 km/h 91% 0 mm WeatherDisplay:10.37 W/m2 FEW
10:58 -24.1 °C -24.7 °C 34669.3 hPa NNW 5.5 km/h 15 km/h 91% 0 mm WeatherDisplay:10.37 W/m2 FEW
11:04 -23.9 °C -24.6 °C 34669.3 hPa NW 15.8 km/h 26.9 km/h 91% 0 mm WeatherDisplay:10.37 W/m2 FEW
11:09 -23.8 °C -24.5 °C 34669.3 hPa NNW 6 km/h 11.9 km/h 91% 0 mm WeatherDisplay:10.37 W/m2 FEW
11:14 -23.8 °C -24.4 °C 34669.3 hPa NNW 11.4 km/h 26.9 km/h 91% 0 mm WeatherDisplay:10.37 W/m2 FEW
11:19 -23.7 °C -24.3 °C 34669.3 hPa NNW 3.7 km/h 9 km/h 91% 0 mm WeatherDisplay:10.37 W/m2 FEW
11:24 -23.7 °C -24.3 °C 34669.3 hPa NNW 3.4 km/h 10.3 km/h 91% 0 mm WeatherDisplay:10.37 W/m2 FEW
11:29 -23.6 °C -24.2 °C 34669.3 hPa NNW 0.3 km/h 20.9 km/h 91% 0 mm WeatherDisplay:10.37 W/m2 FEW
11:35 -23.5 °C -24.1 °C 34669.3 hPa NNW 0.3 km/h 9 km/h 91% 0 mm WeatherDisplay:10.37 W/m2 FEW
11:40 -23.4 °C -24.1 °C 34669.3 hPa NNW 9 km/h 11.9 km/h 91% 0 mm WeatherDisplay:10.37 W/m2 FEW
11:45 -23.3 °C -24 °C 34669.3 hPa NW 6 km/h 20.9 km/h 91% 0 mm WeatherDisplay:10.37 W/m2 FEW
11:50 -23.2 °C -23.9 °C 34669.3 hPa NNW 6.4 km/h 11.9 km/h 91% 0 mm WeatherDisplay:10.37 W/m2 FEW
11:55 -23.2 °C -23.8 °C 34669.3 hPa NNW 9.8 km/h 20.9 km/h 91% 0 mm WeatherDisplay:10.37 W/m2 FEW
12:00 -23.1 °C -23.8 °C 34669.3 hPa NW 6.9 km/h 23.8 km/h 91% 0 mm WeatherDisplay:10.37 W/m2 FEW
12:05 -23 °C -23.7 °C 34669.3 hPa NW 2.9 km/h 5.1 km/h 91% 0 mm WeatherDisplay:10.37 W/m2 FEW
12:10 -22.9 °C -23.7 °C 34669.3 hPa North 3.1 km/h 9 km/h 91% 0 mm WeatherDisplay:10.37 W/m2 FEW
12:15 -22.9 °C -23.7 °C 34669.3 hPa NNW 6.9 km/h 20.9 km/h 90% 0 mm WeatherDisplay:10.37 W/m2 FEW
12:20 -22.9 °C -23.7 °C 34669.3 hPa NNE 2.1 km/h 9 km/h 90% 0 mm WeatherDisplay:10.37 W/m2 FEW
12:25 -22.9 °C -23.7 °C 34669.3 hPa NNW 8.2 km/h 15 km/h 90% 0 mm WeatherDisplay:10.37 W/m2 FEW
12:30 -22.9 °C -23.6 °C 34669.3 hPa NNW 4.7 km/h 11.9 km/h 90% 0 mm WeatherDisplay:10.37 W/m2 FEW
12:35 -22.8 °C -23.5 °C 34682.8 hPa NNW 2.3 km/h 11.9 km/h 91% 0 mm WeatherDisplay:10.37 W/m2 FEW
12:40 -22.8 °C -23.6 °C 34669.3 hPa NNW 8.2 km/h 9 km/h 90% 0 mm WeatherDisplay:10.37 W/m2 FEW
12:45 -22.8 °C -23.6 °C 34669.3 hPa NNW 1.6 km/h 11.9 km/h 90% 0 mm WeatherDisplay:10.37 W/m2 FEW
12:50 -22.8 °C -23.5 °C 34682.8 hPa NNW 12.2 km/h 29.8 km/h 90% 0 mm WeatherDisplay:10.37 W/m2 FEW
12:55 -22.7 °C -23.4 °C 34682.8 hPa NNW 5.1 km/h 11.9 km/h 90% 0 mm WeatherDisplay:10.37 W/m2 FEW
13:00 -22.7 °C -23.4 °C 34682.8 hPa NNW 9.7 km/h 23.8 km/h 90% 0 mm WeatherDisplay:10.37 W/m2 FEW
13:05 -22.7 °C -23.4 °C 34682.8 hPa NNW 3.4 km/h 23.8 km/h 90% 0 mm WeatherDisplay:10.37 W/m2 FEW
13:10 -22.6 °C -23.4 °C 34682.8 hPa NW 11.4 km/h 12.9 km/h 90% 0 mm WeatherDisplay:10.37 W/m2 FEW
13:15 -22.6 °C -23.4 °C 34682.8 hPa NNW 0.8 km/h 2.6 km/h 90% 0 mm WeatherDisplay:10.37 W/m2 FEW
13:20 -22.6 °C -23.4 °C 34682.8 hPa NNW 10.3 km/h 20.9 km/h 90% 0 mm WeatherDisplay:10.37 W/m2 FEW
13:25 -22.6 °C -23.3 °C 34682.8 hPa NNW 0.8 km/h 12.9 km/h 90% 0 mm WeatherDisplay:10.37 W/m2 FEW
13:30 -22.6 °C -23.3 °C 34682.8 hPa NNW 6.8 km/h 10.3 km/h 90% 0 mm WeatherDisplay:10.37 W/m2 FEW
13:35 -22.5 °C -23.2 °C 34682.8 hPa NNW 14.8 km/h 26.9 km/h 90% 0 mm WeatherDisplay:10.37 W/m2 FEW
13:40 -22.4 °C -23.2 °C 34682.8 hPa NNW 6 km/h 9 km/h 90% 0 mm WeatherDisplay:10.37 W/m2 FEW
13:45 -22.4 °C -23.2 °C 34682.8 hPa NNW 9.3 km/h 23.8 km/h 90% 0 mm WeatherDisplay:10.37 W/m2 FEW
13:50 -22.4 °C -23.2 °C 34682.8 hPa NNW 7.7 km/h 15 km/h 90% 0 mm WeatherDisplay:10.37 W/m2 FEW
13:55 -22.4 °C -23.2 °C 34682.8 hPa NW 6.3 km/h 9 km/h 90% 0 mm WeatherDisplay:10.37 W/m2 FEW
14:00 -22.4 °C -23.2 °C 34682.8 hPa NW 9.7 km/h 15 km/h 90% 0 mm WeatherDisplay:10.37 W/m2 FEW
14:05 -22.3 °C -23.1 °C 34693 hPa NW 12.9 km/h 26.9 km/h 90% 0 mm WeatherDisplay:10.37 W/m2 FEW
14:10 -22.3 °C -23.1 °C 34693 hPa NNW 14.5 km/h 14.5 km/h 90% 0 mm WeatherDisplay:10.37 W/m2 FEW
14:15 -22.3 °C -23.1 °C 34693 hPa NNW 11.1 km/h 15 km/h 90% 0 mm WeatherDisplay:10.37 W/m2 FEW
14:20 -22.3 °C -23 °C 34693 hPa NNW 6.4 km/h 20.9 km/h 90% 0 mm WeatherDisplay:10.37 W/m2 FEW
14:25 -22.3 °C -23 °C 34693 hPa NNW 6.9 km/h 11.9 km/h 90% 0 mm WeatherDisplay:10.37 W/m2 FEW
14:30 -22.2 °C -22.9 °C 34693 hPa NNW 5.5 km/h 11.9 km/h 90% 0 mm WeatherDisplay:10.37 W/m2 FEW
14:35 -22.2 °C -22.9 °C 34693 hPa NW 9.8 km/h 26.9 km/h 90% 0 mm WeatherDisplay:10.37 W/m2 FEW
14:39 -22.2 °C -22.9 °C 34693 hPa NW 2.3 km/h 15 km/h 90% 0 mm WeatherDisplay:10.37 W/m2 FEW
14:44 -22.2 °C -22.9 °C 34693 hPa NW 9.3 km/h 11.9 km/h 90% 0 mm WeatherDisplay:10.37 W/m2 FEW
14:49 -22.2 °C -22.9 °C 34703.1 hPa NNW 1.8 km/h   90% 0 mm WeatherDisplay:10.37 W/m2 FEW
14:54 -22.2 °C -22.9 °C 34703.1 hPa NNW 6.9 km/h 20.9 km/h 90% 0 mm WeatherDisplay:10.37 W/m2 FEW
14:59 -22.2 °C -22.9 °C 34703.1 hPa NNW 2.6 km/h 26.9 km/h 90% 0 mm WeatherDisplay:10.37 W/m2 FEW
15:04 -22.1 °C -22.9 °C 34703.1 hPa NNW 8.9 km/h 9 km/h 90% 0 mm WeatherDisplay:10.37 W/m2 FEW
15:09 -22.1 °C -22.9 °C 34703.1 hPa NNW 12.2 km/h 20.9 km/h 90% 0 mm WeatherDisplay:10.37 W/m2 FEW
15:14 -22.1 °C -22.9 °C 34703.1 hPa NNW 5.1 km/h 9 km/h 90% 0 mm WeatherDisplay:10.37 W/m2 FEW
15:19 -22.2 °C -22.9 °C 34703.1 hPa NNW 6 km/h 20.9 km/h 90% 0 mm WeatherDisplay:10.37 W/m2 FEW
15:24 -22.2 °C -22.9 °C 34703.1 hPa NW 11.6 km/h 23.8 km/h 90% 0 mm WeatherDisplay:10.37 W/m2 FEW
15:29 -22.2 °C -22.9 °C 34703.1 hPa NNW 8.9 km/h 11.9 km/h 90% 0 mm WeatherDisplay:10.37 W/m2 FEW
15:34 -22.3 °C -23 °C 34703.1 hPa NNW 7.2 km/h 11.9 km/h 90% 0 mm WeatherDisplay:10.37 W/m2 FEW
15:39 -22.3 °C -23.1 °C 34703.1 hPa NNW 7.2 km/h 11.9 km/h 90% 0 mm WeatherDisplay:10.37 W/m2 FEW
15:44 -22.3 °C -23.1 °C 34703.1 hPa NNW 11.6 km/h 23.8 km/h 90% 0 mm WeatherDisplay:10.37 W/m2 FEW
15:49 -22.4 °C -23.1 °C 34703.1 hPa NNW 4.7 km/h 11.9 km/h 90% 0 mm WeatherDisplay:10.37 W/m2 FEW
15:54 -22.4 °C -23.2 °C 34716.7 hPa NNW 8.2 km/h 23.8 km/h 90% 0 mm WeatherDisplay:10.37 W/m2 FEW
15:59 -22.4 °C -23.2 °C 34716.7 hPa NNW 8.9 km/h 11.9 km/h 90% 0 mm WeatherDisplay:10.37 W/m2 FEW
16:04 -22.5 °C -23.2 °C 34716.7 hPa NNW 8.9 km/h 11.9 km/h 90% 0 mm WeatherDisplay:10.37 W/m2 FEW
16:09 -22.6 °C -23.3 °C 34716.7 hPa NNW 6.3 km/h 9 km/h 90% 0 mm WeatherDisplay:10.37 W/m2 FEW
16:14 -22.6 °C -23.3 °C 34716.7 hPa NNW 3.9 km/h 15 km/h 90% 0 mm WeatherDisplay:10.37 W/m2 FEW
16:19 -22.6 °C -23.4 °C 34716.7 hPa NNW 2.3 km/h 9 km/h 90% 0 mm WeatherDisplay:10.37 W/m2 FEW
16:24 -22.7 °C -23.4 °C 34716.7 hPa NNW 3.7 km/h 9 km/h 90% 0 mm WeatherDisplay:10.37 W/m2 FEW
16:29 -22.7 °C -23.4 °C 34716.7 hPa NW 12.2 km/h 15 km/h 90% 0 mm WeatherDisplay:10.37 W/m2 FEW
16:34 -22.7 °C -23.4 °C 34726.8 hPa NNW 4.2 km/h 15 km/h 91% 0 mm WeatherDisplay:10.37 W/m2 FEW
16:39 -22.8 °C -23.4 °C 34726.8 hPa NNW 8.9 km/h 15.6 km/h 91% 0 mm WeatherDisplay:10.37 W/m2 FEW
16:44 -22.8 °C -23.5 °C 34726.8 hPa NNW 5.6 km/h 9 km/h 91% 0 mm WeatherDisplay:10.37 W/m2 FEW
16:49 -22.8 °C -23.5 °C 34726.8 hPa NW 10.1 km/h 23.8 km/h 91% 0 mm WeatherDisplay:10.37 W/m2 FEW
16:54 -22.9 °C -23.6 °C 34726.8 hPa NNW 12.4 km/h 12.4 km/h 91% 0 mm WeatherDisplay:10.37 W/m2 FEW
16:59 -22.9 °C -23.6 °C 34726.8 hPa NNW 10.1 km/h 20.9 km/h 91% 0 mm WeatherDisplay:10.37 W/m2 FEW
17:04 -22.9 °C -23.7 °C 34726.8 hPa NNW 6.8 km/h 20.9 km/h 90% 0 mm WeatherDisplay:10.37 W/m2 FEW
17:09 -23 °C -23.7 °C 34726.8 hPa North 5.5 km/h 9 km/h 91% 0 mm WeatherDisplay:10.37 W/m2 FEW
17:14 -23.1 °C -23.8 °C 34740.4 hPa NNW 14 km/h 26.9 km/h 90% 0 mm WeatherDisplay:10.37 W/m2 FEW
17:19 -23.1 °C -23.8 °C 34740.4 hPa NNW 9.3 km/h 23.8 km/h 91% 0 mm WeatherDisplay:10.37 W/m2 FEW
17:24 -23.2 °C -23.8 °C 34740.4 hPa NNW 8.5 km/h 23.8 km/h 91% 0 mm WeatherDisplay:10.37 W/m2 FEW
17:29 -23.2 °C -23.8 °C 34740.4 hPa NNW 14 km/h 26.9 km/h 91% 0 mm WeatherDisplay:10.37 W/m2 FEW
17:34 -23.2 °C -23.8 °C 34740.4 hPa NNW 12.2 km/h 15 km/h 91% 0 mm WeatherDisplay:10.37 W/m2 FEW
17:39 -23.2 °C -23.9 °C 34740.4 hPa NNW 6.4 km/h 9 km/h 91% 0 mm WeatherDisplay:10.37 W/m2 FEW
17:44 -23.3 °C -23.9 °C 34740.4 hPa NNW 8.2 km/h 9 km/h 91% 0 mm WeatherDisplay:10.37 W/m2 FEW
17:49 -23.3 °C -23.9 °C 34740.4 hPa NNW 9.7 km/h 12.9 km/h 91% 0 mm WeatherDisplay:10.37 W/m2 FEW
17:54 -23.3 °C -24 °C 34740.4 hPa NNW 7.7 km/h 9 km/h 91% 0 mm WeatherDisplay:10.37 W/m2 FEW
17:59 -23.4 °C -24 °C 34740.4 hPa NNW 9.8 km/h 23.8 km/h 91% 0 mm WeatherDisplay:10.37 W/m2 FEW
18:04 -23.4 °C -24.1 °C 34740.4 hPa NNW 6.8 km/h 20.9 km/h 91% 0 mm WeatherDisplay:10.37 W/m2 FEW
18:09 -23.4 °C -24.1 °C 34740.4 hPa NW 16.1 km/h 28.5 km/h 91% 0 mm WeatherDisplay:10.37 W/m2 FEW
18:14 -23.4 °C -24.1 °C 34740.4 hPa NNW 10.1 km/h 11.9 km/h 91% 0 mm WeatherDisplay:10.37 W/m2 FEW
18:19 -23.4 °C -24.1 °C 34740.4 hPa NNW 11.4 km/h 23.8 km/h 91% 0 mm WeatherDisplay:10.37 W/m2 FEW
18:24 -23.5 °C -24.1 °C 34740.4 hPa NW 3.1 km/h 9 km/h 91% 0 mm WeatherDisplay:10.37 W/m2 FEW
18:29 -23.5 °C -24.1 °C 34740.4 hPa NNW 9.7 km/h 23.8 km/h 91% 0 mm WeatherDisplay:10.37 W/m2 FEW
18:34 -23.5 °C -24.2 °C 34740.4 hPa NNW 1.8 km/h 15 km/h 91% 0 mm WeatherDisplay:10.37 W/m2 FEW
18:39 -23.5 °C -24.2 °C 34740.4 hPa NNW 9 km/h 11.9 km/h 91% 0 mm WeatherDisplay:10.37 W/m2 FEW
18:44 -23.6 °C -24.2 °C 34750.5 hPa NNW 9 km/h 11.9 km/h 91% 0 mm WeatherDisplay:10.37 W/m2 FEW
18:49 -23.6 °C -24.2 °C 34740.4 hPa NNW 4.3 km/h 9 km/h 91% 0 mm WeatherDisplay:10.37 W/m2 FEW
18:54 -23.6 °C -24.2 °C 34740.4 hPa NNW 10.3 km/h 12.9 km/h 91% 0 mm WeatherDisplay:10.37 W/m2 FEW
18:59 -23.6 °C -24.2 °C 34750.5 hPa NNW 8 km/h 11.9 km/h 91% 0 mm WeatherDisplay:10.37 W/m2 FEW
19:04 -23.6 °C -24.3 °C 34750.5 hPa NNW 5 km/h 11.9 km/h 91% 0 mm WeatherDisplay:10.37 W/m2 FEW
19:09 -23.6 °C -24.3 °C 34750.5 hPa NW 4.7 km/h 15 km/h 91% 0 mm WeatherDisplay:10.37 W/m2 FEW
19:14 -23.6 °C -24.2 °C 34750.5 hPa NNW 8.9 km/h 20.9 km/h 92% 0 mm WeatherDisplay:10.37 W/m2 FEW
19:19 -23.6 °C -24.2 °C 34750.5 hPa NNW 9.3 km/h 20.9 km/h 92% 0 mm WeatherDisplay:10.37 W/m2 FEW
19:24 -23.6 °C -24.2 °C 34760.7 hPa NW 8.5 km/h 11.9 km/h 91% 0 mm WeatherDisplay:10.37 W/m2 FEW
19:29 -23.6 °C -24.2 °C 34760.7 hPa NW 8.5 km/h 15 km/h 91% 0 mm WeatherDisplay:10.37 W/m2 FEW
19:34 -23.5 °C -24.2 °C 34760.7 hPa NNW 9 km/h 11.9 km/h 91% 0 mm WeatherDisplay:10.37 W/m2 FEW
19:39 -23.5 °C -24.2 °C 34760.7 hPa NNW 14 km/h 23.8 km/h 91% 0 mm WeatherDisplay:10.37 W/m2 FEW
19:44 -23.5 °C -24.2 °C 34760.7 hPa NNW 10.9 km/h 20.9 km/h 91% 0 mm WeatherDisplay:10.37 W/m2 FEW
19:49 -23.5 °C -24.2 °C 34760.7 hPa NNW 14.8 km/h 23.8 km/h 91% 0 mm WeatherDisplay:10.37 W/m2 FEW
19:54 -23.5 °C -24.2 °C 34760.7 hPa NNW 10.1 km/h 11.9 km/h 91% 0 mm WeatherDisplay:10.37 W/m2 FEW
19:59 -23.5 °C -24.2 °C 34760.7 hPa NNW 8 km/h 23.8 km/h 91% 0 mm WeatherDisplay:10.37 W/m2 FEW
20:04 -23.5 °C -24.2 °C 34774.2 hPa NW 10.1 km/h 20.9 km/h 91% 0 mm WeatherDisplay:10.37 W/m2 FEW
20:09 -23.5 °C -24.2 °C 34774.2 hPa NNW 15.6 km/h 26.9 km/h 91% 0 mm WeatherDisplay:10.37 W/m2 FEW
20:14 -23.5 °C -24.1 °C 34760.7 hPa NW 11.4 km/h 23.8 km/h 91% 0 mm WeatherDisplay:10.37 W/m2 FEW
20:19 -23.5 °C -24.1 °C 34760.7 hPa NNW 10.9 km/h 28.5 km/h 91% 0 mm WeatherDisplay:10.37 W/m2 FEW
20:24 -23.5 °C -24.1 °C 34774.2 hPa NNW 9.7 km/h 15 km/h 91% 0 mm WeatherDisplay:10.37 W/m2 FEW
20:29 -23.5 °C -24.1 °C 34760.7 hPa North 14 km/h 20.9 km/h 91% 0 mm WeatherDisplay:10.37 W/m2 FEW
20:34 -23.5 °C -24.2 °C 34760.7 hPa NNW 15.6 km/h 23.8 km/h 91% 0 mm WeatherDisplay:10.37 W/m2 FEW
20:39 -23.5 °C -24.2 °C 34774.2 hPa NNW 11.9 km/h 25.9 km/h 91% 0 mm WeatherDisplay:10.37 W/m2 FEW
20:44 -23.5 °C -24.2 °C 34774.2 hPa NW 6.4 km/h 15.6 km/h 91% 0 mm WeatherDisplay:10.37 W/m2 FEW
20:50 -23.6 °C -24.2 °C 34774.2 hPa NNW 10.1 km/h 15 km/h 91% 0 mm WeatherDisplay:10.37 W/m2 FEW
20:55 -23.6 °C -24.2 °C 34774.2 hPa North 9.3 km/h 15.6 km/h 91% 0 mm WeatherDisplay:10.37 W/m2 FEW
21:00 -23.6 °C -24.2 °C 34774.2 hPa NNW 11.4 km/h 23.8 km/h 91% 0 mm WeatherDisplay:10.37 W/m2 FEW
21:05 -23.6 °C -24.2 °C 34774.2 hPa NNW 13.2 km/h 20.9 km/h 91% 0 mm WeatherDisplay:10.37 W/m2 FEW
21:10 -23.7 °C -24.3 °C 34774.2 hPa NNW 9 km/h 15 km/h 91% 0 mm WeatherDisplay:10.37 W/m2 FEW
21:15 -23.7 °C -24.3 °C 34774.2 hPa NNW 7.6 km/h 11.9 km/h 91% 0 mm WeatherDisplay:10.37 W/m2 FEW
21:20 -23.7 °C -24.3 °C 34774.2 hPa NW 10.3 km/h 20.9 km/h 91% 0 mm WeatherDisplay:10.37 W/m2 FEW
21:25 -23.7 °C -24.3 °C 34774.2 hPa NNW 7.7 km/h 11.9 km/h 91% 0 mm WeatherDisplay:10.37 W/m2 FEW
21:30 -23.7 °C -24.3 °C 34774.2 hPa NNW 7.7 km/h 20.9 km/h 91% 0 mm WeatherDisplay:10.37 W/m2 FEW
21:35 -23.7 °C -24.4 °C 34774.2 hPa NW 9 km/h 11.9 km/h 91% 0 mm WeatherDisplay:10.37 W/m2 FEW
21:40 -23.7 °C -24.4 °C 34784.4 hPa NNW 10.6 km/h 15 km/h 91% 0 mm WeatherDisplay:10.37 W/m2 FEW
21:45 -23.7 °C -24.4 °C 34774.2 hPa NW 6.4 km/h 15.6 km/h 91% 0 mm WeatherDisplay:10.37 W/m2 FEW
21:50 -23.8 °C -24.4 °C 34784.4 hPa NNW 10.3 km/h 23.8 km/h 91% 0 mm WeatherDisplay:10.37 W/m2 FEW
21:55 -23.8 °C -24.4 °C 34774.2 hPa NNW 12.2 km/h 15 km/h 91% 0 mm WeatherDisplay:10.37 W/m2 FEW
22:00 -23.8 °C -24.5 °C 34774.2 hPa NW 10.6 km/h 20.9 km/h 91% 0 mm WeatherDisplay:10.37 W/m2 FEW
22:05 -23.8 °C -24.5 °C 34774.2 hPa NNW 10.9 km/h 20.9 km/h 91% 0 mm WeatherDisplay:10.37 W/m2 FEW
22:10 -23.8 °C -24.5 °C 34774.2 hPa NNW 10.9 km/h 23.8 km/h 91% 0 mm WeatherDisplay:10.37 W/m2 FEW
22:15 -23.8 °C -24.5 °C 34774.2 hPa NNW 12.4 km/h 15.6 km/h 91% 0 mm WeatherDisplay:10.37 W/m2 FEW
22:20 -23.9 °C -24.6 °C 34774.2 hPa NNW 6 km/h 15 km/h 91% 0 mm WeatherDisplay:10.37 W/m2 FEW
22:25 -23.9 °C -24.6 °C 34784.4 hPa NNW 10.6 km/h 15 km/h 91% 0 mm WeatherDisplay:10.37 W/m2 FEW
22:30 -23.9 °C -24.6 °C 34774.2 hPa NNW 9.8 km/h 20.9 km/h 91% 0 mm WeatherDisplay:10.37 W/m2 FEW
22:36 -23.9 °C -24.6 °C 34784.4 hPa NNW 4.2 km/h 11.9 km/h 91% 0 mm WeatherDisplay:10.37 W/m2 FEW
22:41 -23.9 °C -24.6 °C 34784.4 hPa NNW 7.2 km/h 9 km/h 91% 0 mm WeatherDisplay:10.37 W/m2 FEW
22:46 -23.9 °C -24.6 °C 34784.4 hPa NNW 7.2 km/h 15 km/h 91% 0 mm WeatherDisplay:10.37 W/m2 FEW
22:51 -24 °C -24.6 °C 34784.4 hPa NNW 5.6 km/h 9 km/h 91% 0 mm WeatherDisplay:10.37 W/m2 FEW
22:56 -23.9 °C -24.6 °C 34784.4 hPa NNW 7.2 km/h 12.9 km/h 91% 0 mm WeatherDisplay:10.37 W/m2 FEW
23:01 -23.9 °C -24.6 °C 34784.4 hPa NNW 9.8 km/h 20.9 km/h 92% 0 mm WeatherDisplay:10.37 W/m2 FEW
23:06 -23.9 °C -24.5 °C 34784.4 hPa NNW 12.4 km/h 23.3 km/h 92% 0 mm WeatherDisplay:10.37 W/m2 FEW
23:11 -23.9 °C -24.5 °C 34784.4 hPa NNW 8.9 km/h 15 km/h 92% 0 mm WeatherDisplay:10.37 W/m2 FEW
23:16 -23.8 °C -24.4 °C 34784.4 hPa NNW 8.5 km/h 15.6 km/h 92% 0 mm WeatherDisplay:10.37 W/m2 FEW
23:21 -23.8 °C -24.4 °C 34784.4 hPa NW 9 km/h 23.8 km/h 92% 0 mm WeatherDisplay:10.37 W/m2 FEW
23:26 -23.8 °C -24.5 °C 34774.2 hPa NNW 11.4 km/h 12.9 km/h 91% 0 mm WeatherDisplay:10.37 W/m2 FEW
23:31 -23.8 °C -24.5 °C 34774.2 hPa NNW 8.9 km/h 23.3 km/h 91% 0 mm WeatherDisplay:10.37 W/m2 FEW
23:36 -23.8 °C -24.5 °C 34774.2 hPa NNW 8.9 km/h 20.9 km/h 91% 0 mm WeatherDisplay:10.37 W/m2 FEW
23:41 -23.8 °C -24.4 °C 34784.4 hPa NNW 9.7 km/h 15 km/h 91% 0 mm WeatherDisplay:10.37 W/m2 FEW
23:46 -23.8 °C -24.5 °C 34784.4 hPa North 12.7 km/h 15 km/h 91% 0 mm WeatherDisplay:10.37 W/m2 FEW
23:51 -23.8 °C -24.5 °C 34784.4 hPa NNW 9.3 km/h 26.9 km/h 91% 0 mm WeatherDisplay:10.37 W/m2 FEW
23:56 -23.8 °C -24.4 °C 34784.4 hPa NNW 14 km/h 15 km/h 91% 0 mm WeatherDisplay:10.37 W/m2 FEW
Tuulensuunkaari, Veikkola, Suomi
Compliments of Weather Underground - 2.75 mb